createdAt,value
2023-03-17T00:36:35.408Z,8.90
2023-03-17T00:43:22.491Z,8.90
2023-03-17T01:25:08.535Z,8.70
2023-03-17T01:53:39.101Z,8.40
2023-03-17T02:04:03.752Z,8.40
2023-03-17T02:10:43.265Z,8.40
2023-03-17T02:25:15.597Z,8.50
2023-03-17T02:42:15.830Z,8.60
2023-03-17T02:45:03.749Z,8.60
2023-03-17T02:48:20.128Z,8.50
2023-03-17T02:51:10.898Z,8.50
2023-03-17T02:54:15.684Z,8.50
2023-03-17T02:56:59.077Z,8.50
2023-03-17T03:06:41.237Z,8.50
2023-03-17T03:09:19.923Z,8.50
2023-03-17T03:11:55.023Z,8.40
2023-03-17T03:14:27.127Z,8.40
2023-03-17T03:17:02.511Z,8.50
2023-03-17T03:19:37.787Z,8.40
2023-03-17T03:25:30.355Z,8.30
2023-03-17T03:28:04.780Z,8.20
2023-03-17T03:30:42.844Z,8.10
2023-03-17T03:33:38.059Z,8.10
2023-03-17T03:48:51.236Z,8.00
2023-03-17T03:51:59.136Z,8.10
2023-03-17T03:59:14.391Z,8.00
2023-03-17T04:02:29.668Z,8.00
2023-03-17T04:19:46.793Z,7.70
2023-03-17T04:28:01.656Z,7.60
2023-03-17T04:34:16.276Z,7.30
2023-03-17T04:41:09.944Z,7.10
2023-03-17T04:44:09.077Z,7.00
2023-03-17T04:47:15.165Z,6.90
2023-03-17T04:56:53.764Z,6.70
2023-03-17T04:59:26.179Z,6.90
2023-03-17T05:02:19.474Z,6.60
2023-03-17T05:04:56.347Z,6.80
2023-03-17T05:07:37.357Z,7.00
2023-03-17T05:13:59.366Z,7.40
2023-03-17T05:16:27.928Z,7.40
2023-03-17T05:18:56.363Z,7.40
2023-03-17T05:21:25.354Z,7.20
2023-03-17T05:23:55.025Z,7.20
2023-03-17T05:26:26.371Z,7.10
2023-03-17T05:28:54.851Z,7.10
2023-03-17T05:31:24.726Z,7.00
2023-03-17T05:33:53.583Z,6.90
2023-03-17T05:36:22.125Z,6.90
2023-03-17T05:38:50.901Z,6.90
2023-03-17T05:41:19.487Z,7.00
2023-03-17T05:43:47.976Z,7.10
2023-03-17T05:46:18.018Z,7.10
2023-03-17T05:48:50.269Z,7.10
2023-03-17T05:51:18.687Z,7.10
2023-03-17T05:53:47.200Z,7.00
2023-03-17T05:56:15.986Z,7.00
2023-03-17T05:58:45.081Z,7.20
2023-03-17T06:01:14.318Z,7.40
2023-03-17T06:03:42.792Z,7.60
2023-03-17T06:06:12.961Z,7.50
2023-03-17T06:08:41.343Z,7.50
2023-03-17T06:11:09.562Z,7.40
2023-03-17T06:13:37.906Z,7.50
2023-03-17T06:16:06.742Z,7.40
2023-03-17T06:18:35.797Z,7.30
2023-03-17T06:21:04.195Z,7.30
2023-03-17T06:23:34.358Z,7.20
2023-03-17T06:26:03.149Z,7.40
2023-03-17T06:28:31.941Z,7.40
2023-03-17T06:31:00.423Z,7.40
2023-03-17T06:33:29.548Z,7.30
2023-03-17T06:36:00.316Z,7.40
2023-03-17T06:38:28.744Z,7.40
2023-03-17T06:40:59.109Z,7.50
2023-03-17T06:43:28.025Z,7.70
2023-03-17T06:45:56.232Z,7.60
2023-03-17T06:48:24.769Z,7.50
2023-03-17T06:50:53.278Z,7.50
2023-03-17T06:53:21.602Z,7.50
2023-03-17T06:55:49.777Z,7.70
2023-03-17T06:58:20.756Z,7.70
2023-03-17T07:00:49.827Z,7.80
2023-03-17T07:03:18.268Z,7.70
2023-03-17T07:05:49.098Z,7.80
2023-03-17T07:08:17.954Z,7.90
2023-03-17T07:10:46.493Z,8.10
2023-03-17T07:13:14.797Z,8.10
2023-03-17T07:15:46.609Z,8.10
2023-03-17T07:18:14.865Z,8.10
2023-03-17T07:20:43.574Z,8.20
2023-03-17T07:23:14.207Z,8.30
2023-03-17T07:25:45.827Z,8.50
2023-03-17T07:28:14.801Z,8.70
2023-03-17T07:30:47.027Z,8.90
2023-03-17T07:33:15.968Z,9.10
2023-03-17T07:35:44.305Z,9.10
2023-03-17T07:38:13.402Z,9.30
2023-03-17T07:40:42.310Z,9.50
2023-03-17T07:43:10.735Z,9.60
2023-03-17T07:45:39.126Z,9.60
2023-03-17T07:48:09.770Z,9.80
2023-03-17T07:50:39.199Z,9.90
2023-03-17T07:53:07.554Z,10.10
2023-03-17T07:55:37.296Z,10.10
2023-03-17T07:58:05.796Z,10.20
2023-03-17T08:00:35.080Z,10.50
2023-03-17T08:03:10.133Z,10.60
2023-03-17T08:05:41.179Z,10.50
2023-03-17T08:08:10.810Z,10.50
2023-03-17T08:10:40.605Z,10.80
2023-03-17T08:13:09.166Z,10.80
2023-03-17T08:15:37.662Z,11.00
2023-03-17T08:18:07.214Z,10.90
2023-03-17T08:20:36.766Z,10.90
2023-03-17T08:23:06.954Z,11.00
2023-03-17T08:25:35.402Z,11.20
2023-03-17T08:28:03.823Z,11.10
2023-03-17T08:30:33.815Z,11.10
2023-03-17T08:33:02.824Z,11.10
2023-03-17T08:35:31.916Z,11.10
2023-03-17T08:38:00.689Z,11.30
2023-03-17T08:40:31.502Z,11.30
2023-03-17T08:43:00.171Z,11.40
2023-03-17T08:45:28.919Z,11.60
2023-03-17T08:47:57.877Z,11.50
2023-03-17T08:50:26.825Z,11.60
2023-03-17T08:52:56.012Z,11.60
2023-03-17T08:55:24.431Z,11.70
2023-03-17T08:57:54.511Z,11.70
2023-03-17T09:00:23.669Z,11.80
2023-03-17T09:02:52.175Z,11.80
2023-03-17T09:05:20.806Z,11.90
2023-03-17T09:07:50.244Z,11.90
2023-03-17T09:10:22.938Z,12.00
2023-03-17T09:13:03.159Z,12.00
2023-03-17T09:15:32.847Z,12.10
2023-03-17T09:18:02.008Z,12.20
2023-03-17T09:20:30.733Z,12.30
2023-03-17T09:22:59.818Z,12.40
2023-03-17T09:25:28.685Z,12.50
2023-03-17T09:27:58.812Z,12.50
2023-03-17T09:30:27.558Z,12.60
2023-03-17T09:32:57.353Z,12.80
2023-03-17T09:35:28.102Z,13.00
2023-03-17T09:37:57.035Z,13.50
2023-03-17T09:40:33.310Z,13.70
2023-03-17T09:43:23.097Z,13.70
2023-03-17T09:45:51.747Z,14.00
2023-03-17T09:48:31.789Z,13.90
2023-03-17T09:51:05.007Z,14.00
2023-03-17T09:53:38.180Z,14.10
2023-03-17T09:56:10.419Z,14.40
2023-03-17T09:58:41.900Z,14.70
2023-03-17T10:01:11.299Z,14.80
2023-03-17T10:03:39.882Z,14.90
2023-03-17T10:06:37.055Z,15.10
2023-03-17T10:09:18.045Z,15.20
2023-03-17T10:11:48.794Z,15.40
2023-03-17T10:14:51.124Z,15.50
2023-03-17T10:17:22.686Z,15.50
2023-03-17T10:19:59.905Z,15.60
2023-03-17T10:22:32.281Z,15.50
2023-03-17T10:25:05.749Z,15.40
2023-03-17T10:27:37.888Z,15.50
2023-03-17T10:30:16.450Z,15.70
2023-03-17T10:32:45.818Z,15.60
2023-03-17T10:35:15.250Z,15.60
2023-03-17T10:37:44.219Z,15.60
2023-03-17T10:40:22.736Z,15.80
2023-03-17T10:42:54.721Z,15.80
2023-03-17T10:45:29.824Z,15.80
2023-03-17T10:47:59.563Z,16.00
2023-03-17T10:50:31.551Z,16.00
2023-03-17T10:53:02.099Z,16.10
2023-03-17T10:55:34.031Z,16.00
2023-03-17T10:58:06.305Z,16.10
2023-03-17T11:00:38.742Z,16.20
2023-03-17T11:03:13.801Z,16.30
2023-03-17T11:05:42.448Z,16.40
2023-03-17T11:08:16.208Z,16.50
2023-03-17T11:10:45.108Z,16.70
2023-03-17T11:13:18.131Z,16.90
2023-03-17T11:15:51.337Z,17.00
2023-03-17T11:18:22.637Z,17.20
2023-03-17T11:20:56.375Z,17.40
2023-03-17T11:23:33.008Z,17.40
2023-03-17T11:26:14.859Z,17.70
2023-03-17T11:28:47.794Z,17.60
2023-03-17T11:31:21.391Z,17.60
2023-03-17T11:33:55.144Z,17.70
2023-03-17T11:36:36.685Z,17.80
2023-03-17T11:39:12.650Z,17.60
2023-03-17T11:41:58.126Z,17.80
2023-03-17T11:44:40.490Z,18.00
2023-03-17T11:47:19.369Z,18.20
2023-03-17T11:49:52.674Z,18.30
2023-03-17T11:52:26.954Z,18.30
2023-03-17T11:55:00.179Z,18.50
2023-03-17T11:57:33.231Z,18.60
2023-03-17T12:00:04.529Z,18.50
2023-03-17T12:02:41.418Z,18.50
2023-03-17T12:05:11.796Z,18.60
2023-03-17T12:07:45.408Z,18.30
2023-03-17T12:10:21.879Z,18.50
2023-03-17T12:12:53.727Z,18.60
2023-03-17T12:15:29.481Z,18.60
2023-03-17T12:18:02.877Z,18.50
2023-03-17T12:20:35.334Z,18.60
2023-03-17T12:23:08.819Z,18.40
2023-03-17T12:25:42.624Z,18.60
2023-03-17T12:28:14.690Z,18.50
2023-03-17T12:30:49.417Z,18.60
2023-03-17T12:33:24.785Z,18.50
2023-03-17T12:35:54.061Z,18.40
2023-03-17T12:38:27.251Z,18.50
2023-03-17T12:41:13.405Z,18.40
2023-03-17T12:43:50.239Z,18.50
2023-03-17T12:46:29.332Z,18.50
2023-03-17T12:49:32.161Z,18.50
2023-03-17T12:52:27.482Z,18.50
2023-03-17T12:54:56.439Z,18.40
2023-03-17T12:57:30.162Z,18.30
2023-03-17T13:00:01.929Z,18.30
2023-03-17T13:02:38.036Z,18.30
2023-03-17T13:05:12.226Z,18.30
2023-03-17T13:07:43.431Z,18.40
2023-03-17T13:10:28.160Z,18.40
2023-03-17T13:13:09.015Z,18.50
2023-03-17T13:16:05.903Z,18.60
2023-03-17T13:18:53.472Z,18.60
2023-03-17T13:21:26.694Z,18.60
2023-03-17T13:24:02.156Z,18.70
2023-03-17T13:26:56.712Z,18.70
2023-03-17T13:29:27.569Z,18.70
2023-03-17T13:32:30.265Z,18.60
2023-03-17T13:35:16.947Z,18.60
2023-03-17T13:38:13.138Z,18.60
2023-03-17T13:40:52.309Z,18.70
2023-03-17T13:43:35.186Z,18.20
2023-03-17T13:46:22.599Z,18.20
2023-03-17T13:48:51.605Z,17.90
2023-03-17T13:51:22.240Z,17.90
2023-03-17T13:53:56.010Z,17.90
2023-03-17T13:56:26.725Z,18.00
2023-03-17T13:59:12.625Z,18.10
2023-03-17T14:01:45.319Z,17.90
2023-03-17T14:04:26.302Z,17.90
2023-03-17T14:06:58.303Z,17.90
2023-03-17T14:09:36.106Z,17.90
2023-03-17T14:12:11.378Z,18.10
2023-03-17T14:14:44.697Z,18.10
2023-03-17T14:17:16.479Z,18.10
2023-03-17T14:20:08.800Z,18.10
2023-03-17T14:22:45.571Z,18.00
2023-03-17T14:25:18.821Z,17.90
2023-03-17T14:27:49.410Z,18.00
2023-03-17T14:30:21.061Z,17.90
2023-03-17T14:32:51.864Z,17.70
2023-03-17T14:35:21.757Z,17.80
2023-03-17T14:37:49.933Z,17.80
2023-03-17T14:40:25.918Z,17.70
2023-03-17T14:42:54.778Z,17.60
2023-03-17T14:45:30.076Z,17.40
2023-03-17T14:47:58.592Z,17.50
2023-03-17T14:50:29.540Z,17.50
2023-03-17T14:52:59.781Z,17.30
2023-03-17T14:55:36.464Z,17.40
2023-03-17T14:58:10.280Z,17.40
2023-03-17T15:00:39.621Z,17.30
2023-03-17T15:03:20.143Z,17.30
2023-03-17T15:05:49.939Z,17.40
2023-03-17T15:08:43.121Z,17.30
2023-03-17T15:11:23.907Z,17.20
2023-03-17T15:13:56.060Z,17.20
2023-03-17T15:16:26.954Z,17.20
2023-03-17T15:19:04.481Z,17.30
2023-03-17T15:21:36.259Z,17.30
2023-03-17T15:24:21.767Z,17.10
2023-03-17T15:26:51.523Z,17.20
2023-03-17T15:29:19.702Z,17.30
2023-03-17T15:31:48.070Z,17.20
2023-03-17T15:34:16.215Z,17.20
2023-03-17T15:36:47.618Z,17.10
2023-03-17T15:39:16.275Z,17.00
2023-03-17T15:41:44.985Z,17.10
2023-03-17T15:44:14.841Z,17.10
2023-03-17T15:46:43.627Z,17.00
2023-03-17T15:49:12.620Z,16.90
2023-03-17T15:51:41.044Z,17.00
2023-03-17T15:54:15.138Z,16.90
2023-03-17T15:56:44.499Z,16.90
2023-03-17T15:59:14.896Z,16.80
2023-03-17T16:01:43.375Z,16.80
2023-03-17T16:04:12.206Z,16.60
2023-03-17T16:06:40.534Z,16.70
2023-03-17T16:09:16.581Z,16.60
2023-03-17T16:11:45.112Z,16.70
2023-03-17T16:14:14.831Z,16.70
2023-03-17T16:16:45.895Z,16.70
2023-03-17T16:19:20.184Z,16.50
2023-03-17T16:21:49.134Z,16.50
2023-03-17T16:24:19.901Z,16.40
2023-03-17T16:26:48.288Z,16.50
2023-03-17T16:29:18.630Z,16.50
2023-03-17T16:31:49.464Z,16.50
2023-03-17T16:34:19.934Z,16.40
2023-03-17T16:36:48.824Z,16.30
2023-03-17T16:39:18.775Z,16.20
2023-03-17T16:41:48.284Z,16.10
2023-03-17T16:44:20.527Z,16.10
2023-03-17T16:46:49.985Z,16.10
2023-03-17T16:49:20.818Z,15.90
2023-03-17T16:51:50.596Z,15.90
2023-03-17T16:54:19.150Z,15.80
2023-03-17T16:56:47.730Z,15.90
2023-03-17T16:59:21.323Z,15.90
2023-03-17T17:01:50.063Z,15.80
2023-03-17T17:04:18.532Z,15.70
2023-03-17T17:06:47.140Z,15.70
2023-03-17T17:09:15.386Z,15.60
2023-03-17T17:11:43.812Z,15.60
2023-03-17T17:14:12.071Z,15.50
2023-03-17T17:16:42.033Z,15.40
2023-03-17T17:19:17.023Z,15.40
2023-03-17T17:21:45.773Z,15.40
2023-03-17T17:24:14.942Z,15.40
2023-03-17T17:26:43.724Z,15.20
2023-03-17T17:29:12.551Z,15.10
2023-03-17T17:31:42.381Z,15.10
2023-03-17T17:34:10.952Z,15.00
2023-03-17T17:36:39.608Z,15.00
2023-03-17T17:39:08.218Z,15.00
2023-03-17T17:41:36.441Z,15.00
2023-03-17T17:44:05.573Z,14.90
2023-03-17T17:46:34.085Z,14.90
2023-03-17T17:49:03.837Z,14.90
2023-03-17T17:51:33.134Z,14.80
2023-03-17T17:54:02.864Z,14.80
2023-03-17T17:56:32.746Z,14.80
2023-03-17T17:59:01.146Z,14.70
2023-03-17T18:01:29.473Z,14.70
2023-03-17T18:03:57.945Z,14.60
2023-03-17T18:06:38.106Z,14.60
2023-03-17T18:09:06.639Z,14.60
2023-03-17T18:11:38.515Z,14.50
2023-03-17T18:14:06.657Z,14.60
2023-03-17T18:16:36.029Z,14.50
2023-03-17T18:19:05.367Z,14.50
2023-03-17T18:21:36.954Z,14.50
2023-03-17T18:24:06.309Z,14.40
2023-03-17T18:26:36.072Z,14.40
2023-03-17T18:29:05.017Z,14.40
2023-03-17T18:31:36.052Z,14.40
2023-03-17T18:34:07.773Z,14.40
2023-03-17T18:36:37.572Z,14.30
2023-03-17T18:39:06.202Z,14.20
2023-03-17T18:41:35.656Z,14.20
2023-03-17T18:44:03.998Z,14.20
2023-03-17T18:46:33.156Z,14.30
2023-03-17T18:49:01.397Z,14.30
2023-03-17T18:51:29.803Z,14.10
2023-03-17T18:53:59.913Z,14.20
2023-03-17T18:56:29.723Z,14.10
2023-03-17T18:58:58.385Z,14.10
2023-03-17T19:01:27.203Z,14.10
2023-03-17T19:03:55.686Z,14.10
2023-03-17T19:06:25.534Z,14.10
2023-03-17T19:08:54.092Z,14.00
2023-03-17T19:11:24.552Z,14.10
2023-03-17T19:13:53.227Z,14.10
2023-03-17T19:16:22.328Z,14.10
2023-03-17T19:18:51.766Z,14.10
2023-03-17T19:21:22.206Z,14.00
2023-03-17T19:23:51.134Z,14.00
2023-03-17T19:26:19.945Z,14.00
2023-03-17T19:28:49.436Z,14.00
2023-03-17T19:31:17.893Z,14.00
2023-03-17T19:33:46.316Z,13.90
2023-03-17T19:36:15.547Z,13.90
2023-03-17T19:38:44.161Z,13.90
2023-03-17T19:41:12.817Z,13.90
2023-03-17T19:43:41.844Z,13.90
2023-03-17T19:46:12.961Z,13.90
2023-03-17T19:48:42.096Z,13.80
2023-03-17T19:51:10.426Z,13.80
2023-03-17T19:53:38.823Z,13.80
2023-03-17T19:56:08.509Z,13.80
2023-03-17T19:58:37.393Z,13.70
2023-03-17T20:01:06.979Z,13.80
2023-03-17T20:03:39.857Z,13.70
2023-03-17T20:06:08.441Z,13.80
2023-03-17T20:08:37.236Z,13.80
2023-03-17T20:11:07.049Z,13.70
2023-03-17T20:13:36.554Z,13.80
2023-03-17T20:16:05.915Z,13.70
2023-03-17T20:18:34.388Z,13.70
2023-03-17T20:21:05.888Z,13.70
2023-03-17T20:23:34.556Z,13.70
2023-03-17T20:26:03.654Z,13.70
2023-03-17T20:28:32.041Z,13.70
2023-03-17T20:31:03.328Z,13.70
2023-03-17T20:33:33.545Z,13.60
2023-03-17T20:36:04.862Z,13.60
2023-03-17T20:38:36.967Z,13.60
2023-03-17T20:41:10.524Z,13.60
2023-03-17T20:43:39.046Z,13.60
2023-03-17T20:46:09.435Z,13.60
2023-03-17T20:48:38.313Z,13.50
2023-03-17T20:51:10.515Z,13.50
2023-03-17T20:53:39.033Z,13.50
2023-03-17T20:56:08.648Z,13.50
2023-03-17T20:58:37.173Z,13.50
2023-03-17T21:01:05.719Z,13.50
2023-03-17T21:03:34.056Z,13.50
2023-03-17T21:06:02.305Z,13.50
2023-03-17T21:08:33.809Z,13.50
2023-03-17T21:11:02.825Z,13.50
2023-03-17T21:13:33.398Z,13.50
2023-03-17T21:16:02.481Z,13.50
2023-03-17T21:18:31.792Z,13.50
2023-03-17T21:21:00.167Z,13.50
2023-03-17T21:23:28.767Z,13.40
2023-03-17T21:25:58.624Z,13.50
2023-03-17T21:28:27.320Z,13.50
2023-03-17T21:30:56.121Z,13.50
2023-03-17T21:33:24.373Z,13.50
2023-03-17T21:35:52.904Z,13.40
2023-03-17T21:38:21.854Z,13.30
2023-03-17T21:40:50.571Z,13.30
2023-03-17T21:43:20.555Z,13.30
2023-03-17T21:45:49.390Z,13.30
2023-03-17T21:48:18.061Z,13.30
2023-03-17T21:50:46.945Z,13.20
2023-03-17T21:53:15.901Z,13.20
2023-03-17T21:55:44.407Z,13.20
2023-03-17T21:58:12.801Z,13.20
2023-03-17T22:00:45.977Z,13.10
2023-03-17T22:03:15.230Z,13.10
2023-03-17T22:05:44.047Z,13.10
2023-03-17T22:08:12.538Z,13.10
2023-03-17T22:10:41.509Z,13.00
2023-03-17T22:13:10.147Z,13.00
2023-03-17T22:15:38.619Z,13.10
2023-03-17T22:18:09.678Z,13.10
2023-03-17T22:20:38.352Z,13.10
2023-03-17T22:23:06.620Z,13.00
2023-03-17T22:25:34.926Z,13.10
2023-03-17T22:28:03.362Z,13.00
2023-03-17T22:30:31.993Z,13.10
2023-03-17T22:33:00.808Z,13.00
2023-03-17T22:35:30.959Z,13.00
2023-03-17T22:37:59.139Z,13.00
2023-03-17T22:40:27.549Z,13.00
2023-03-17T22:42:57.653Z,12.90
2023-03-17T22:45:26.715Z,12.80
2023-03-17T22:47:55.557Z,12.90
